createdAt,value
2022-12-20T00:00:10.258Z,15.97
2022-12-20T00:02:37.145Z,15.70
2022-12-20T00:05:03.765Z,15.80
2022-12-20T00:07:30.367Z,18.03
2022-12-20T00:09:56.826Z,16.97
2022-12-20T00:12:23.276Z,17.03
2022-12-20T00:14:49.709Z,17.20
2022-12-20T00:17:16.323Z,17.23
2022-12-20T00:19:44.081Z,16.73
2022-12-20T00:22:10.652Z,17.07
2022-12-20T00:24:37.248Z,17.63
2022-12-20T00:27:03.729Z,16.93
2022-12-20T00:29:30.210Z,16.00
2022-12-20T00:31:56.710Z,17.17
2022-12-20T00:34:25.146Z,15.50
2022-12-20T00:36:51.608Z,17.33
2022-12-20T00:39:18.089Z,18.47
2022-12-20T00:41:44.737Z,16.80
2022-12-20T00:44:11.192Z,16.03
2022-12-20T00:46:37.807Z,17.17
2022-12-20T00:49:04.400Z,17.10
2022-12-20T00:51:32.817Z,16.97
2022-12-20T00:53:59.397Z,17.13
2022-12-20T00:56:26.203Z,16.70
2022-12-20T00:58:53.555Z,16.57
2022-12-20T01:01:27.014Z,16.17
2022-12-20T01:03:53.765Z,14.53
2022-12-20T01:06:20.383Z,15.50
2022-12-20T01:08:46.873Z,15.33
2022-12-20T01:11:14.545Z,15.47
2022-12-20T01:13:42.017Z,18.03
2022-12-20T01:16:16.810Z,15.30
2022-12-20T01:18:43.373Z,14.93
2022-12-20T01:21:10.983Z,16.57
2022-12-20T01:23:37.564Z,16.87
2022-12-20T01:26:05.091Z,16.07
2022-12-20T01:28:31.900Z,16.40
2022-12-20T01:30:58.386Z,17.23
2022-12-20T01:33:24.846Z,17.33
2022-12-20T01:36:01.220Z,16.50
2022-12-20T01:38:27.840Z,16.83
2022-12-20T01:40:54.431Z,16.90
2022-12-20T01:43:21.533Z,17.80
2022-12-20T01:45:48.183Z,16.90
2022-12-20T01:48:19.020Z,16.87
2022-12-20T01:50:46.560Z,17.20
2022-12-20T01:53:13.047Z,17.40
2022-12-20T01:55:39.520Z,16.87
2022-12-20T01:58:06.368Z,16.13
2022-12-20T02:00:32.856Z,17.13
2022-12-20T02:02:59.720Z,17.13
2022-12-20T02:05:26.509Z,16.97
2022-12-20T02:07:53.740Z,16.93
2022-12-20T02:10:21.100Z,16.03
2022-12-20T02:12:47.695Z,17.30
2022-12-20T02:15:17.311Z,15.93
2022-12-20T02:17:50.953Z,16.80
2022-12-20T02:20:40.698Z,16.47
2022-12-20T02:23:07.147Z,18.13
2022-12-20T02:25:46.081Z,16.97
2022-12-20T02:28:31.430Z,16.97
2022-12-20T02:30:58.675Z,16.93
2022-12-20T02:33:25.184Z,15.77
2022-12-20T02:35:51.702Z,18.30
2022-12-20T02:38:25.834Z,17.50
2022-12-20T02:40:53.973Z,15.53
2022-12-20T02:43:39.176Z,17.17
2022-12-20T02:46:05.800Z,15.50
2022-12-20T02:48:32.427Z,16.93
2022-12-20T02:50:58.907Z,17.27
2022-12-20T02:53:25.370Z,16.30
2022-12-20T02:56:03.286Z,17.53
2022-12-20T02:58:32.104Z,16.77
2022-12-20T03:00:59.250Z,17.27
2022-12-20T03:09:22.649Z,16.00
2022-12-20T03:11:49.105Z,17.57
2022-12-20T03:14:15.645Z,15.90
2022-12-20T03:16:42.253Z,16.40
2022-12-20T03:19:08.775Z,15.47
2022-12-20T03:21:35.331Z,16.00
2022-12-20T03:24:01.767Z,15.80
2022-12-20T03:26:28.221Z,17.00
2022-12-20T03:28:54.834Z,16.17
2022-12-20T03:31:21.330Z,15.33
2022-12-20T03:33:47.920Z,15.47
2022-12-20T03:36:14.474Z,16.07
2022-12-20T03:38:40.913Z,16.40
2022-12-20T03:41:07.517Z,14.83
2022-12-20T03:43:33.954Z,17.03
2022-12-20T03:46:00.538Z,16.80
2022-12-20T03:48:27.016Z,15.23
2022-12-20T03:50:53.451Z,14.73
2022-12-20T03:53:19.933Z,15.33
2022-12-20T03:55:46.392Z,15.77
2022-12-20T03:58:12.957Z,15.40
2022-12-20T04:00:39.550Z,15.53
2022-12-20T04:03:06.155Z,15.63
2022-12-20T04:05:32.658Z,16.90
2022-12-20T04:07:59.851Z,15.60
2022-12-20T04:10:26.284Z,15.67
2022-12-20T04:12:53.007Z,15.67
2022-12-20T04:15:19.453Z,15.77
2022-12-20T04:17:45.900Z,15.40
2022-12-20T04:20:21.483Z,13.47
2022-12-20T04:22:48.180Z,14.90
2022-12-20T04:25:18.311Z,15.63
2022-12-20T04:27:44.848Z,14.80
2022-12-20T04:30:11.671Z,15.63
2022-12-20T04:32:38.176Z,15.67
2022-12-20T04:35:04.847Z,16.23
2022-12-20T04:37:31.495Z,14.40
2022-12-20T04:39:58.508Z,16.70
2022-12-20T04:42:25.288Z,15.37
2022-12-20T04:44:51.759Z,15.47
2022-12-20T04:47:18.171Z,15.97
2022-12-20T04:49:44.615Z,15.80
2022-12-20T04:52:29.818Z,16.03
2022-12-20T04:54:56.253Z,16.27
2022-12-20T04:57:22.719Z,17.47
2022-12-20T04:59:49.189Z,15.97
2022-12-20T05:02:15.846Z,16.83
2022-12-20T05:04:42.599Z,18.10
2022-12-20T05:07:09.131Z,18.50
2022-12-20T05:09:35.611Z,18.10
2022-12-20T05:12:02.088Z,17.93
2022-12-20T05:14:28.538Z,19.43
2022-12-20T05:16:55.001Z,18.37
2022-12-20T05:19:21.467Z,18.10
2022-12-20T05:22:06.555Z,19.40
2022-12-20T05:24:51.792Z,19.90
2022-12-20T05:27:18.303Z,18.13
2022-12-20T05:29:44.801Z,18.50
2022-12-20T05:32:11.409Z,19.30
2022-12-20T05:34:37.901Z,17.50
2022-12-20T05:37:04.601Z,18.67
2022-12-20T05:39:31.173Z,17.60
2022-12-20T05:41:57.659Z,17.80
2022-12-20T05:44:24.169Z,17.87
2022-12-20T05:46:52.558Z,18.63
2022-12-20T05:49:19.076Z,18.03
2022-12-20T05:51:45.767Z,18.20
2022-12-20T05:54:12.273Z,17.57
2022-12-20T05:56:38.743Z,17.30
2022-12-20T05:59:05.248Z,17.13
2022-12-20T06:01:31.930Z,16.23
2022-12-20T06:03:58.634Z,18.43
2022-12-20T06:06:25.107Z,16.90
2022-12-20T06:08:51.590Z,16.87
2022-12-20T06:11:18.093Z,18.23
2022-12-20T06:13:44.569Z,16.93
2022-12-20T06:19:32.697Z,16.97
2022-12-20T06:21:59.336Z,15.73
2022-12-20T06:24:25.874Z,18.30
2022-12-20T06:26:52.335Z,16.67
2022-12-20T06:29:20.883Z,18.23
2022-12-20T06:31:47.712Z,17.87
2022-12-20T06:34:14.259Z,17.93
2022-12-20T06:36:40.799Z,18.00
2022-12-20T06:39:09.923Z,17.77
2022-12-20T06:41:36.837Z,18.40
2022-12-20T06:44:03.410Z,17.20
2022-12-20T06:46:30.077Z,17.97
2022-12-20T06:48:56.769Z,17.90
2022-12-20T06:51:23.286Z,18.23
2022-12-20T06:53:49.777Z,19.13
2022-12-20T06:56:16.290Z,19.00
2022-12-20T06:58:42.781Z,19.70
2022-12-20T07:01:09.533Z,18.67
2022-12-20T07:03:36.120Z,20.90
2022-12-20T07:06:02.630Z,20.90
2022-12-20T07:08:29.135Z,18.83
2022-12-20T07:10:56.602Z,18.87
2022-12-20T07:13:23.358Z,19.87
2022-12-20T07:15:49.912Z,18.73
2022-12-20T07:18:16.458Z,20.47
2022-12-20T07:20:42.941Z,20.37
2022-12-20T07:23:09.867Z,19.70
2022-12-20T07:25:36.372Z,19.97
2022-12-20T07:28:03.497Z,19.70
2022-12-20T07:30:31.362Z,19.17
2022-12-20T07:32:59.087Z,18.87
2022-12-20T07:35:26.794Z,18.87
2022-12-20T07:37:53.373Z,20.27
2022-12-20T07:40:19.913Z,19.70
2022-12-20T07:42:48.948Z,21.10
2022-12-20T07:45:15.774Z,20.57
2022-12-20T07:47:42.321Z,20.10
2022-12-20T07:50:09.087Z,18.90
2022-12-20T07:52:35.597Z,19.10
2022-12-20T07:55:02.934Z,20.33
2022-12-20T07:57:34.683Z,19.23
2022-12-20T08:00:01.321Z,18.93
2022-12-20T08:02:30.851Z,19.57
2022-12-20T08:04:57.417Z,20.07
2022-12-20T08:07:24.237Z,19.20
2022-12-20T08:09:50.722Z,20.27
2022-12-20T08:12:17.831Z,18.87
2022-12-20T08:14:44.443Z,19.93
2022-12-20T08:17:11.953Z,21.60
2022-12-20T08:19:38.946Z,20.63
2022-12-20T08:22:06.365Z,20.40
2022-12-20T08:24:33.405Z,21.17
2022-12-20T08:26:59.867Z,20.57
2022-12-20T08:29:26.336Z,19.10
2022-12-20T08:31:52.788Z,22.70
2022-12-20T08:34:19.351Z,20.27
2022-12-20T08:36:45.828Z,20.20
2022-12-20T08:39:12.327Z,22.60
2022-12-20T08:41:38.946Z,21.00
2022-12-20T08:44:05.953Z,21.23
2022-12-20T08:46:32.531Z,21.40
2022-12-20T08:48:59.032Z,21.70
2022-12-20T08:51:25.565Z,21.13
2022-12-20T08:53:52.326Z,21.70
2022-12-20T08:56:18.853Z,22.30
2022-12-20T08:58:46.468Z,20.93
2022-12-20T09:01:16.933Z,21.40
2022-12-20T09:03:43.823Z,22.20
2022-12-20T09:06:11.255Z,20.23
2022-12-20T09:08:38.172Z,21.60
2022-12-20T09:11:12.293Z,20.70
2022-12-20T09:13:43.683Z,21.07
2022-12-20T09:16:11.241Z,21.37
2022-12-20T09:18:37.714Z,22.97
2022-12-20T09:21:04.699Z,21.40
2022-12-20T09:23:31.360Z,22.23
2022-12-20T09:26:27.281Z,21.60
2022-12-20T09:28:54.117Z,20.73
2022-12-20T09:31:22.799Z,21.73
2022-12-20T09:33:49.441Z,19.27
2022-12-20T09:36:17.650Z,20.60
2022-12-20T09:38:44.410Z,21.83
2022-12-20T09:41:29.947Z,22.07
2022-12-20T09:43:57.515Z,21.27
2022-12-20T09:46:24.136Z,20.23
2022-12-20T09:48:51.639Z,18.47
2022-12-20T09:51:18.222Z,20.17
2022-12-20T09:53:44.790Z,18.77
2022-12-20T09:56:16.353Z,20.77
2022-12-20T09:58:42.890Z,19.63
2022-12-20T10:01:21.409Z,19.17
2022-12-20T10:03:51.425Z,19.13
2022-12-20T10:06:30.296Z,19.53
2022-12-20T10:08:56.811Z,18.70
2022-12-20T10:11:50.210Z,20.03
2022-12-20T10:14:36.302Z,18.97
2022-12-20T10:17:04.660Z,18.57
2022-12-20T10:19:37.267Z,18.60
2022-12-20T10:22:12.759Z,17.93
2022-12-20T10:24:39.329Z,19.37
2022-12-20T10:27:12.129Z,18.83
2022-12-20T10:29:38.760Z,18.60
2022-12-20T10:32:06.013Z,17.57
2022-12-20T10:34:37.534Z,18.20
2022-12-20T10:37:13.213Z,19.63
2022-12-20T10:39:43.651Z,21.47
2022-12-20T10:42:29.079Z,22.57
2022-12-20T10:44:55.588Z,20.43
2022-12-20T10:47:24.825Z,22.03
2022-12-20T10:49:51.327Z,20.67
2022-12-20T10:52:18.453Z,21.43
2022-12-20T10:54:45.455Z,22.07
2022-12-20T10:57:28.237Z,21.77
2022-12-20T10:59:56.423Z,22.57
2022-12-20T11:02:29.268Z,20.70
2022-12-20T11:05:14.608Z,21.43
2022-12-20T11:08:33.455Z,19.90
2022-12-20T11:10:39.991Z,18.43
2022-12-20T11:13:06.866Z,19.30
2022-12-20T11:15:35.080Z,19.03
2022-12-20T11:18:13.365Z,20.53
2022-12-20T11:20:43.393Z,18.77
2022-12-20T11:23:19.017Z,19.13
2022-12-20T11:25:52.920Z,20.87
2022-12-20T11:28:28.770Z,19.37
2022-12-20T11:31:14.163Z,19.87
2022-12-20T11:33:43.575Z,18.17
2022-12-20T11:36:32.143Z,19.87
2022-12-20T11:39:17.421Z,17.60
2022-12-20T11:42:10.333Z,17.73
2022-12-20T11:45:03.274Z,18.27
2022-12-20T11:47:34.723Z,19.20
2022-12-20T11:50:04.342Z,17.63
2022-12-20T11:52:30.866Z,18.57
2022-12-20T11:55:21.924Z,19.07
2022-12-20T12:00:50.783Z,17.87
2022-12-20T12:03:26.441Z,19.20
2022-12-20T12:05:54.155Z,19.13
2022-12-20T12:08:39.550Z,18.93
2022-12-20T12:11:32.329Z,19.33
2022-12-20T12:13:59.815Z,18.37
2022-12-20T12:16:27.952Z,17.40
2022-12-20T12:18:54.722Z,17.60
2022-12-20T12:21:24.955Z,19.47
2022-12-20T12:24:01.283Z,18.83
2022-12-20T12:26:32.608Z,19.93
2022-12-20T12:28:59.818Z,20.37
2022-12-20T12:31:28.784Z,19.97
2022-12-20T12:34:10.249Z,20.23
2022-12-20T12:36:47.523Z,19.30
2022-12-20T12:39:33.605Z,20.70
2022-12-20T12:42:00.131Z,20.83
2022-12-20T12:44:30.765Z,21.17
2022-12-20T12:46:59.818Z,21.73
2022-12-20T12:49:26.795Z,19.83
2022-12-20T12:51:54.185Z,20.20
2022-12-20T12:54:25.815Z,21.67
2022-12-20T12:56:52.780Z,20.67
2022-12-20T12:59:20.913Z,19.83
2022-12-20T13:01:47.581Z,19.70
2022-12-20T13:04:20.231Z,20.47
2022-12-20T13:06:49.969Z,20.47
2022-12-20T13:09:16.467Z,20.57
2022-12-20T13:11:46.915Z,21.67
2022-12-20T13:14:26.341Z,21.90
2022-12-20T13:17:14.341Z,21.80
2022-12-20T13:19:52.240Z,19.33
2022-12-20T13:22:20.263Z,21.40
2022-12-20T13:24:50.749Z,22.77
2022-12-20T13:27:27.174Z,21.30
2022-12-20T13:29:56.247Z,22.97
2022-12-20T13:32:41.567Z,22.20
2022-12-20T13:35:26.800Z,22.47
2022-12-20T13:37:56.532Z,22.83
2022-12-20T13:40:31.523Z,22.80
2022-12-20T13:42:58.098Z,21.27
2022-12-20T13:45:24.608Z,22.43
2022-12-20T13:47:53.006Z,21.77
2022-12-20T13:50:24.747Z,22.20
2022-12-20T13:52:51.414Z,21.50
2022-12-20T13:55:38.241Z,21.47
2022-12-20T13:58:11.695Z,21.47
2022-12-20T14:00:38.458Z,20.57
2022-12-20T14:03:05.146Z,21.10
2022-12-20T14:05:32.741Z,20.47
2022-12-20T14:07:59.793Z,22.87
2022-12-20T14:10:27.577Z,20.60
2022-12-20T14:12:54.293Z,22.23
2022-12-20T14:15:47.563Z,22.10
2022-12-20T14:18:18.608Z,19.77
2022-12-20T14:20:45.139Z,21.47
2022-12-20T14:23:12.916Z,20.33
2022-12-20T14:25:52.324Z,21.47
2022-12-20T14:28:38.123Z,21.43
2022-12-20T14:31:05.040Z,19.83
2022-12-20T14:33:31.648Z,20.93
2022-12-20T14:36:00.022Z,20.57
2022-12-20T14:38:30.698Z,21.23
2022-12-20T14:40:57.782Z,19.87
2022-12-20T14:43:27.201Z,20.13
2022-12-20T14:46:14.225Z,19.97
2022-12-20T14:48:40.944Z,20.13
2022-12-20T14:51:07.569Z,21.10
2022-12-20T14:53:36.033Z,20.00
2022-12-20T14:56:03.922Z,20.47
2022-12-20T14:58:31.489Z,21.13
2022-12-20T15:00:59.159Z,21.53
2022-12-20T15:03:25.877Z,22.10
2022-12-20T15:05:56.267Z,21.43
2022-12-20T15:08:24.018Z,23.40
2022-12-20T15:10:56.775Z,22.30
2022-12-20T15:13:29.677Z,23.90
2022-12-20T15:15:56.211Z,23.57
2022-12-20T15:18:22.756Z,21.77
2022-12-20T15:20:50.259Z,23.60
2022-12-20T15:23:17.250Z,24.10
2022-12-20T15:25:44.719Z,23.60
2022-12-20T15:28:15.399Z,25.23
2022-12-20T15:30:42.058Z,23.53
2022-12-20T15:33:10.065Z,23.93
2022-12-20T15:35:36.626Z,24.33
2022-12-20T15:38:03.109Z,24.57
2022-12-20T15:40:29.617Z,23.70
2022-12-20T15:42:56.094Z,24.70
2022-12-20T15:45:23.022Z,25.70
2022-12-20T15:47:49.716Z,25.60
2022-12-20T15:50:16.230Z,24.43
2022-12-20T15:52:44.402Z,22.57
2022-12-20T15:55:11.227Z,23.30
2022-12-20T15:57:37.743Z,23.70
2022-12-20T16:00:04.888Z,24.90
2022-12-20T16:02:32.658Z,23.53
2022-12-20T16:04:59.676Z,23.37
2022-12-20T16:07:26.328Z,23.57
2022-12-20T16:09:52.931Z,23.77
2022-12-20T16:12:21.443Z,24.73
2022-12-20T16:14:48.236Z,24.17
2022-12-20T16:17:14.926Z,26.40
2022-12-20T16:19:42.452Z,23.93
2022-12-20T16:22:18.851Z,24.90
2022-12-20T16:24:45.556Z,26.30
2022-12-20T16:27:12.072Z,23.70
2022-12-20T16:29:38.625Z,26.33
2022-12-20T16:32:11.205Z,26.97
2022-12-20T16:34:37.698Z,27.37
2022-12-20T16:37:05.048Z,25.67
2022-12-20T16:39:31.574Z,26.13
2022-12-20T16:41:58.142Z,26.50
2022-12-20T16:44:24.669Z,24.50
2022-12-20T16:46:51.295Z,24.83
2022-12-20T16:49:20.876Z,27.47
2022-12-20T16:51:47.871Z,24.20
2022-12-20T16:54:20.658Z,25.27
2022-12-20T16:56:47.891Z,24.00
2022-12-20T16:59:20.107Z,24.50
2022-12-20T17:01:48.683Z,24.30
2022-12-20T17:04:16.106Z,24.27
2022-12-20T17:06:42.797Z,24.13
2022-12-20T17:11:53.488Z,25.13
2022-12-20T17:14:20.576Z,26.27
2022-12-20T17:16:47.312Z,27.17
2022-12-20T17:19:14.014Z,26.37
2022-12-20T17:24:28.999Z,28.10
2022-12-20T17:26:55.495Z,27.60
2022-12-20T17:29:22.127Z,28.03
2022-12-20T17:31:48.880Z,27.60
2022-12-20T17:34:22.677Z,28.10
2022-12-20T17:36:49.878Z,28.27
2022-12-20T17:39:16.459Z,26.03
2022-12-20T17:41:43.131Z,27.07
2022-12-20T17:44:15.063Z,25.03
2022-12-20T17:46:41.709Z,24.43
2022-12-20T17:49:08.266Z,26.97
2022-12-20T17:51:34.795Z,27.77
2022-12-20T17:54:01.862Z,28.13
2022-12-20T17:56:29.018Z,28.07
2022-12-20T17:58:55.648Z,25.67
2022-12-20T18:01:23.573Z,26.73
2022-12-20T18:04:03.411Z,25.63
2022-12-20T18:06:33.873Z,28.33
2022-12-20T18:09:00.619Z,29.53
2022-12-20T18:11:27.832Z,30.07
2022-12-20T18:13:55.255Z,31.30
2022-12-20T18:16:23.180Z,29.07
2022-12-20T18:18:49.994Z,26.20
2022-12-20T18:21:17.373Z,27.50
2022-12-20T18:23:44.341Z,28.33
2022-12-20T18:26:12.705Z,29.27
2022-12-20T18:28:39.535Z,29.97
2022-12-20T18:31:06.572Z,29.60
2022-12-20T18:33:33.052Z,32.20
2022-12-20T18:36:00.286Z,34.07
2022-12-20T18:38:26.793Z,32.77
2022-12-20T18:40:53.287Z,39.03
2022-12-20T18:43:19.890Z,40.37
2022-12-20T18:45:46.539Z,38.20
2022-12-20T18:48:13.101Z,36.57
2022-12-20T18:50:39.787Z,31.83
2022-12-20T18:53:06.257Z,32.67
2022-12-20T18:55:32.742Z,31.23
2022-12-20T18:57:59.281Z,29.37
2022-12-20T19:00:25.865Z,30.07
2022-12-20T19:02:52.418Z,29.10
2022-12-20T19:05:19.059Z,30.63
2022-12-20T19:07:45.545Z,28.03
2022-12-20T19:10:12.085Z,28.40
2022-12-20T19:12:38.630Z,29.80
2022-12-20T19:15:05.391Z,29.20
2022-12-20T19:17:31.896Z,29.30
2022-12-20T19:19:58.415Z,29.70
2022-12-20T19:22:25.362Z,29.20
2022-12-20T19:24:52.519Z,29.23
2022-12-20T19:27:18.980Z,27.27
2022-12-20T19:29:45.485Z,26.90
2022-12-20T19:32:12.041Z,26.57
2022-12-20T19:34:38.570Z,27.70
2022-12-20T19:37:05.096Z,27.70
2022-12-20T19:39:31.577Z,27.57
2022-12-20T19:42:23.164Z,29.13
2022-12-20T19:44:46.212Z,26.47
2022-12-20T19:47:13.319Z,25.67
2022-12-20T19:49:39.815Z,25.47
2022-12-20T19:52:06.544Z,27.53
2022-12-20T19:54:33.120Z,26.73
2022-12-20T19:56:59.686Z,26.57
2022-12-20T19:59:26.174Z,26.57
2022-12-20T20:01:52.768Z,28.77
2022-12-20T20:04:19.536Z,28.07
2022-12-20T20:06:46.003Z,29.03
2022-12-20T20:09:12.754Z,26.97
2022-12-20T20:11:39.234Z,28.93
2022-12-20T20:14:09.492Z,27.90
2022-12-20T20:16:36.629Z,25.43
2022-12-20T20:19:03.370Z,26.30
2022-12-20T20:21:30.085Z,25.00
2022-12-20T20:23:56.771Z,25.60
2022-12-20T20:26:24.330Z,25.37
2022-12-20T20:28:50.981Z,25.93
2022-12-20T20:31:17.845Z,25.13
2022-12-20T20:33:44.472Z,25.13
2022-12-20T20:36:12.601Z,23.60
2022-12-20T20:38:39.148Z,24.87
2022-12-20T20:41:05.899Z,25.47
2022-12-20T20:43:37.639Z,23.53
2022-12-20T20:46:04.976Z,23.53
2022-12-20T20:48:32.003Z,24.90
2022-12-20T20:50:58.705Z,25.57
2022-12-20T20:53:31.054Z,25.63
2022-12-20T20:55:59.775Z,23.27
2022-12-20T20:58:26.361Z,24.60
2022-12-20T21:00:53.212Z,25.43
2022-12-20T21:03:19.807Z,24.67
2022-12-20T21:06:33.012Z,24.27
2022-12-20T21:08:33.129Z,23.63
2022-12-20T21:11:03.651Z,23.70
2022-12-20T21:13:30.230Z,25.37
2022-12-20T21:15:56.822Z,25.40
2022-12-20T21:18:23.533Z,24.50
2022-12-20T21:20:50.193Z,24.77
2022-12-20T21:23:16.758Z,24.53
2022-12-20T21:25:43.250Z,25.37
2022-12-20T21:28:10.299Z,26.00
2022-12-20T21:30:36.877Z,22.90
2022-12-20T21:33:03.462Z,24.57
2022-12-20T21:35:29.939Z,24.07
2022-12-20T21:37:56.436Z,24.47
2022-12-20T21:40:22.915Z,23.27
2022-12-20T21:42:49.467Z,23.53
2022-12-20T21:45:16.055Z,24.17
2022-12-20T21:47:42.689Z,23.47
2022-12-20T21:50:09.426Z,22.43
2022-12-20T21:52:35.951Z,25.63
2022-12-20T21:55:03.129Z,24.03
2022-12-20T21:57:29.628Z,25.13
2022-12-20T21:59:56.188Z,22.77
2022-12-20T22:02:22.798Z,23.30
2022-12-20T22:04:49.368Z,24.50
2022-12-20T22:07:15.929Z,26.47
2022-12-20T22:09:42.424Z,25.07
2022-12-20T22:12:08.965Z,23.33
2022-12-20T22:14:35.507Z,22.20
2022-12-20T22:17:01.971Z,22.93
2022-12-20T22:19:28.429Z,24.17
2022-12-20T22:21:58.209Z,22.83
2022-12-20T22:24:25.336Z,22.97
2022-12-20T22:26:51.885Z,23.10
2022-12-20T22:29:18.396Z,22.93
2022-12-20T22:31:44.963Z,24.37
2022-12-20T22:34:11.744Z,23.67
2022-12-20T22:36:38.275Z,23.30
2022-12-20T22:39:04.767Z,22.70
2022-12-20T22:41:32.594Z,23.10
2022-12-20T22:43:59.445Z,23.10
2022-12-20T22:46:28.980Z,22.77
2022-12-20T22:48:55.846Z,21.33
2022-12-20T22:51:22.660Z,22.07
2022-12-20T22:53:49.338Z,22.27
2022-12-20T22:56:16.475Z,24.50
2022-12-20T22:58:43.050Z,23.37
2022-12-20T23:01:10.804Z,24.73
2022-12-20T23:03:37.558Z,24.10
2022-12-20T23:06:04.631Z,22.63
2022-12-20T23:08:31.812Z,24.57
2022-12-20T23:11:16.854Z,23.13
2022-12-20T23:14:02.130Z,22.73
2022-12-20T23:16:28.754Z,23.03
2022-12-20T23:18:55.776Z,23.93
2022-12-20T23:21:40.951Z,22.63
2022-12-20T23:24:07.543Z,22.53
2022-12-20T23:26:34.640Z,22.23
2022-12-20T23:29:01.341Z,23.13
2022-12-20T23:31:27.891Z,21.63
2022-12-20T23:33:54.399Z,22.17
2022-12-20T23:36:20.893Z,21.93
2022-12-20T23:38:47.406Z,21.53
2022-12-20T23:41:14.601Z,21.60
2022-12-20T23:43:41.670Z,22.10
2022-12-20T23:46:09.952Z,21.13
2022-12-20T23:48:36.498Z,20.57
2022-12-20T23:51:03.088Z,22.63
2022-12-20T23:53:29.717Z,21.40
2022-12-20T23:56:03.345Z,21.60
2022-12-20T23:58:29.964Z,21.80
